Time;durP1;ratioP1;P1;durP2;ratioP2;P2;SDS_P1;SDS_P2;PMS_P1;PMS_P2;Temp;Humidity;BMP_temperature;BMP_pressure;BME280_temperature;BME280_humidity;BME280_pressure;Samples;Min_cycle;Max_cycle;Signal;HPM_P1;HPM_P2
2024/02/08 00:01:01;;;;;;;0.60;0.60;;;9.70;88.30;;;11.30;60.60;96372.13;5014726;28;20060;-69
2024/02/08 00:03:29;;;;;;;0.70;0.60;;;9.70;87.70;;;11.29;61.13;96367.78;5032854;28;20433;-69
2024/02/08 00:05:56;;;;;;;1.33;0.70;;;9.60;87.80;;;11.28;61.24;96362.66;5030771;28;20049;-69
2024/02/08 00:08:24;;;;;;;0.83;0.73;;;9.60;88.00;;;11.28;61.32;96368.78;5013726;28;20045;-69
2024/02/08 00:10:51;;;;;;;2.00;0.60;;;9.60;88.20;;;11.29;61.36;96366.97;5032299;28;20041;-69
2024/02/08 00:13:19;;;;;;;0.60;0.60;;;9.60;88.30;;;11.30;61.18;96365.94;5032065;28;20041;-70
2024/02/08 00:15:47;;;;;;;0.50;0.50;;;9.60;88.50;;;11.32;61.03;96369.22;5031436;28;20464;-69
2024/02/08 00:18:18;;;;;;;0.40;0.40;;;9.60;88.50;;;11.33;60.94;96365.56;5030658;28;20038;-69
2024/02/08 00:20:46;;;;;;;0.63;0.53;;;9.70;88.30;;;11.32;60.88;96361.25;5032023;28;20432;-69
2024/02/08 00:23:14;;;;;;;0.60;0.60;;;9.60;88.40;;;11.32;61.28;96359.41;5030473;28;20417;-69
2024/02/08 00:25:45;;;;;;;0.40;0.40;;;9.70;88.20;;;11.35;61.06;96356.34;5031331;28;20050;-69
2024/02/08 00:28:14;;;;;;;0.37;0.37;;;9.70;88.00;;;11.34;61.10;96357.38;5031501;28;20050;-69
2024/02/08 00:30:41;;;;;;;1.20;0.63;;;9.70;88.30;;;11.31;61.39;96349.75;5031763;28;20049;-68
2024/02/08 00:33:09;;;;;;;0.40;0.40;;;9.70;88.40;;;11.32;61.49;96350.59;5031535;28;20049;-69
2024/02/08 00:35:37;;;;;;;0.33;0.33;;;9.70;88.10;;;11.30;61.44;96353.47;5031399;28;20037;-69
2024/02/08 00:38:05;;;;;;;0.57;0.57;;;9.70;88.50;;;11.30;61.30;96348.13;5030677;28;20060;-69
2024/02/08 00:40:33;;;;;;;0.97;0.60;;;9.60;88.80;;;11.30;61.35;96349.97;5030728;28;20052;-69
2024/02/08 00:43:06;;;;;;;0.43;0.43;;;9.60;88.80;;;11.33;61.09;96346.91;5030448;28;20537;-69
2024/02/08 00:45:35;;;;;;;0.85;0.68;;;9.70;88.70;;;11.36;61.33;96338.50;5023603;28;20049;-69
2024/02/08 00:48:04;;;;;;;0.47;0.47;;;9.70;88.50;;;11.33;61.42;96339.72;5031407;28;20059;-69
2024/02/08 00:50:32;;;;;;;0.50;0.50;;;9.70;88.60;;;11.32;61.61;96342.59;5022899;28;20078;-69
2024/02/08 00:53:03;;;;;;;0.60;0.60;;;9.70;88.60;;;11.31;61.92;96338.28;5030218;28;20053;-69
2024/02/08 00:55:33;;;;;;;0.77;0.50;;;9.70;88.70;;;11.34;61.73;96344.06;5021506;28;20049;-69
2024/02/08 00:58:02;;;;;;;0.40;0.33;;;9.70;89.00;;;11.34;61.67;96335.22;5031352;28;20425;-69
2024/02/08 01:00:37;;;;;;;0.73;0.53;;;9.70;89.10;;;11.36;61.39;96335.84;5030621;28;20053;-69
2024/02/08 01:03:05;;;;;;;0.50;0.50;;;9.80;88.90;;;11.39;61.76;96336.28;5030086;28;20421;-69
2024/02/08 01:05:33;;;;;;;0.40;0.40;;;9.80;88.70;;;11.39;61.59;96340.78;5022955;28;20068;-69
2024/02/08 01:08:02;;;;;;;0.40;0.40;;;9.80;88.70;;;11.39;61.64;96343.44;5029905;28;20049;-69
2024/02/08 01:10:30;;;;;;;0.70;0.57;;;9.80;89.00;;;11.43;61.60;96345.50;5030632;28;20045;-69
2024/02/08 01:12:58;;;;;;;0.50;0.50;;;9.80;88.70;;;11.45;61.73;96341.84;5029594;28;20045;-69
2024/02/08 01:15:26;;;;;;;0.60;0.60;;;9.80;88.70;;;11.49;61.22;96338.56;5029400;28;20045;-69
2024/02/08 01:17:54;;;;;;;0.40;0.40;;;9.90;88.60;;;11.49;61.49;96343.09;5031011;28;20084;-69
2024/02/08 01:20:27;;;;;;;0.70;0.57;;;9.90;88.40;;;11.51;61.35;96343.69;5029623;28;20045;-69
2024/02/08 01:22:55;;;;;;;0.30;0.30;;;9.90;88.50;;;11.50;61.33;96342.06;5029825;28;20057;-70
2024/02/08 01:25:23;;;;;;;0.50;0.50;;;9.90;88.60;;;11.50;61.86;96347.41;5028828;28;20064;-69
2024/02/08 01:27:50;;;;;;;1.10;0.37;;;9.90;88.60;;;11.51;61.67;96341.84;5030916;28;20048;-69
2024/02/08 01:30:18;;;;;;;0.37;0.37;;;9.90;89.20;;;11.53;61.46;96339.00;5030962;28;20041;-69
2024/02/08 01:32:49;;;;;;;1.10;0.43;;;9.90;89.00;;;11.54;61.88;96338.00;5029504;28;20045;-69
2024/02/08 01:35:21;;;;;;;0.50;0.43;;;9.90;88.90;;;11.53;61.52;96336.31;5030412;28;20103;-69
2024/02/08 01:37:50;;;;;;;0.30;0.30;;;9.90;88.60;;;11.45;62.05;96342.66;5035174;28;20061;-70
2024/02/08 01:40:18;;;;;;;0.83;0.57;;;9.90;89.00;;;11.45;61.72;96341.84;5033948;28;20045;-69
2024/02/08 01:42:46;;;;;;;0.40;0.30;;;9.90;88.80;;;11.47;62.02;96337.94;5035395;28;20053;-69
2024/02/08 01:45:37;;;;;;;0.40;0.40;;;10.00;88.60;;;11.48;62.07;96333.47;5034679;28;20412;-69
2024/02/08 01:48:10;;;;;;;0.80;0.47;;;9.90;88.90;;;11.54;61.68;96338.81;5032217;28;20056;-69
2024/02/08 01:51:02;;;;;;;0.40;0.40;;;10.00;88.60;;;11.58;61.59;96344.56;5017359;28;20037;-69
2024/02/08 01:53:31;;;;;;;0.30;0.30;;;10.00;88.50;;;11.60;61.65;96330.00;5033286;28;20045;-69
2024/02/08 01:56:03;;;;;;;0.30;0.30;;;10.00;88.10;;;11.55;62.02;96335.09;5033989;28;20516;-69
2024/02/08 01:58:34;;;;;;;0.30;0.30;;;10.00;88.50;;;11.54;61.75;96341.47;5033266;28;20060;-69
2024/02/08 02:01:14;;;;;;;0.20;0.20;;;10.00;88.50;;;11.55;62.03;96339.63;5033548;28;20054;-69
2024/02/08 02:03:42;;;;;;;0.40;0.40;;;10.00;88.60;;;11.55;61.89;96336.94;5034606;28;20420;-69
2024/02/08 02:06:14;;;;;;;0.40;0.40;;;10.00;88.70;;;11.57;61.87;96326.91;5033886;28;20049;-69
2024/02/08 02:08:52;;;;;;;0.33;0.33;;;10.00;88.60;;;11.56;62.12;96323.44;5026878;28;20060;-69
2024/02/08 02:11:37;;;;;;;0.50;0.40;;;10.00;88.90;;;11.55;61.69;96327.09;5033413;28;20045;-69
2024/02/08 02:14:06;;;;;;;0.40;0.40;;;10.00;88.80;;;11.55;61.93;96328.94;5034438;28;20052;-69
2024/02/08 02:16:34;;;;;;;0.47;0.40;;;10.00;89.10;;;11.48;62.10;96320.94;5015912;28;20046;-69
2024/02/08 02:19:06;;;;;;;0.20;0.20;;;10.00;89.50;;;11.48;62.14;96331.59;5032698;28;20051;-69
2024/02/08 02:21:34;;;;;;;0.30;0.30;;;10.00;89.70;;;11.48;62.17;96317.47;5034076;28;20428;-69
2024/02/08 02:24:03;;;;;;;0.40;0.40;;;10.00;89.60;;;11.53;62.05;96315.00;5034110;28;20045;-69
2024/02/08 02:26:32;;;;;;;0.30;0.30;;;10.00;89.60;;;11.55;62.33;96316.44;5032411;28;20497;-69
2024/02/08 02:29:00;;;;;;;0.50;0.50;;;10.00;89.50;;;11.55;62.31;96310.28;5032809;28;20041;-69
2024/02/08 02:31:32;;;;;;;0.30;0.30;;;10.00;89.50;;;11.56;62.09;96317.28;5032437;28;20048;-69
2024/02/08 02:34:01;;;;;;;0.27;0.27;;;10.00;89.70;;;11.61;62.28;96312.16;5033058;28;20212;-69
2024/02/08 02:36:28;;;;;;;0.40;0.40;;;10.00;89.40;;;11.63;61.85;96310.97;5032493;28;20045;-69
2024/02/08 02:38:56;;;;;;;0.40;0.40;;;10.10;89.30;;;11.63;62.09;96318.94;5032720;28;20041;-70
2024/02/08 02:41:27;;;;;;;0.37;0.37;;;10.10;89.50;;;11.65;62.33;96307.25;5033700;28;20056;-69
2024/02/08 02:43:55;;;;;;;0.47;0.40;;;10.10;89.50;;;11.66;62.00;96303.56;5033762;28;20045;-69
2024/02/08 02:46:23;;;;;;;0.50;0.50;;;10.10;89.60;;;11.66;62.28;96308.91;5033072;28;20528;-69
2024/02/08 02:48:51;;;;;;;0.33;0.33;;;10.10;89.50;;;11.68;62.27;96305.00;5016807;28;20045;-69
2024/02/08 02:51:19;;;;;;;0.57;0.40;;;10.10;89.40;;;11.66;62.37;96303.56;5033204;28;20041;-69
2024/02/08 02:53:47;;;;;;;0.40;0.40;;;10.10;89.50;;;11.68;62.15;96306.88;5033763;28;20041;-69
2024/02/08 02:56:15;;;;;;;0.33;0.33;;;10.10;89.40;;;11.68;62.35;96310.34;5031927;28;20052;-69
2024/02/08 02:58:43;;;;;;;0.40;0.40;;;10.10;89.20;;;11.67;62.40;96305.22;5033674;28;20053;-69
2024/02/08 03:01:12;;;;;;;1.03;0.40;;;10.10;89.40;;;11.65;62.36;96297.44;5032390;28;20045;-69
2024/02/08 03:03:40;;;;;;;0.23;0.23;;;10.10;89.50;;;11.65;62.31;96301.91;5032136;28;20056;-69
2024/02/08 03:06:14;;;;;;;0.20;0.20;;;10.10;89.80;;;11.66;62.46;96291.06;5032793;28;20049;-69
2024/02/08 03:08:44;;;;;;;0.43;0.43;;;10.10;89.80;;;11.66;62.39;96290.25;5033337;28;20469;-69
2024/02/08 03:11:13;;;;;;;0.40;0.40;;;10.10;89.70;;;11.68;62.26;96283.69;5033382;28;20037;-69
2024/02/08 03:13:45;;;;;;;0.30;0.30;;;10.10;89.80;;;11.66;62.57;96287.59;5031777;28;20038;-69
2024/02/08 03:16:14;;;;;;;0.37;0.37;;;10.10;89.90;;;11.67;62.58;96286.53;5032894;28;20041;-69
2024/02/08 03:18:48;;;;;;;0.40;0.40;;;10.00;89.90;;;11.66;62.27;96283.06;5033090;28;20060;-69
2024/02/08 03:21:21;;;;;;;0.30;0.30;;;10.10;89.90;;;11.66;62.07;96280.41;5033097;28;20041;-69
2024/02/08 03:23:50;;;;;;;1.20;0.60;;;10.10;89.50;;;11.69;62.50;96271.16;5024503;28;20033;-69
2024/02/08 03:26:18;;;;;;;0.60;0.37;;;10.20;89.40;;;11.69;62.62;96268.50;5032783;28;20072;-69
2024/02/08 03:28:46;;;;;;;0.50;0.50;;;10.20;89.50;;;11.71;62.27;96283.28;5032803;28;20049;-68
2024/02/08 03:31:14;;;;;;;0.40;0.40;;;10.20;89.30;;;11.74;62.21;96285.53;5033025;28;20048;-69
2024/02/08 03:33:45;;;;;;;0.40;0.40;;;10.20;89.10;;;11.73;62.23;96286.56;5032744;28;20042;-69
2024/02/08 03:36:13;;;;;;;0.40;0.40;;;10.20;89.40;;;11.75;62.10;96286.38;5032075;28;20428;-69
2024/02/08 03:38:40;;;;;;;0.40;0.40;;;10.20;89.10;;;11.74;62.62;96287.41;5032483;28;20060;-69
2024/02/08 03:41:08;;;;;;;0.47;0.47;;;10.20;89.10;;;11.73;62.37;96288.41;5031612;28;20052;-68
2024/02/08 03:43:36;;;;;;;0.40;0.40;;;10.20;89.30;;;11.76;62.31;96277.34;5031767;28;20054;-69
2024/02/08 03:46:07;;;;;;;0.30;0.30;;;10.20;89.20;;;11.81;61.91;96288.25;5030781;28;20048;-69
2024/02/08 03:48:37;;;;;;;0.40;0.37;;;10.30;89.10;;;11.82;61.96;96293.38;5031458;28;20417;-69
2024/02/08 03:51:05;;;;;;;0.50;0.50;;;10.30;89.60;;;11.81;62.20;96288.25;5013799;28;20520;-70
2024/02/08 03:53:36;;;;;;;0.30;0.30;;;10.30;89.60;;;11.82;62.47;96293.38;5014800;28;20093;-69
2024/02/08 03:56:06;;;;;;;0.47;0.47;;;10.30;89.80;;;11.85;62.43;96291.31;5032168;28;20409;-69
2024/02/08 03:58:36;;;;;;;0.40;0.40;;;10.30;89.90;;;11.82;62.29;96285.38;5031406;28;20041;-69
2024/02/08 04:01:03;;;;;;;0.40;0.40;;;10.20;90.10;;;11.85;62.55;96289.47;5031426;28;20045;-69
2024/02/08 04:03:53;;;;;;;0.40;0.40;;;10.20;90.40;;;11.83;62.32;96286.19;5031221;28;20045;-70
2024/02/08 04:06:36;;;;;;;0.50;0.50;;;10.20;90.90;;;11.81;62.46;96283.72;5031912;28;20041;-70
2024/02/08 04:09:09;;;;;;;0.40;0.40;;;10.20;92.20;;;11.81;62.91;96283.72;5025094;28;20045;-70
2024/02/08 04:56:08;;;;;;;1.07;0.50;;;10.20;93.70;;;11.78;63.25;96261.97;5024264;28;20057;-70
2024/02/08 04:58:40;;;;;;;0.77;0.70;;;10.10;94.00;;;11.77;63.35;96260.34;5030293;28;20482;-70
2024/02/08 05:01:27;;;;;;;0.87;0.50;;;10.10;93.90;;;11.76;63.48;96256.84;5030380;28;20493;-71
2024/02/08 05:03:57;;;;;;;0.50;0.50;;;10.10;94.20;;;11.76;63.60;96248.03;5023340;28;20059;-72
2024/02/08 05:06:25;;;;;;;2.40;0.70;;;10.10;94.50;;;11.76;63.38;96256.84;5030675;28;20045;-71
2024/02/08 05:08:57;;;;;;;0.63;0.40;;;10.10;95.10;;;11.77;63.56;96249.69;5031153;28;20033;-69
2024/02/08 05:11:28;;;;;;;1.10;0.70;;;10.10;95.40;;;11.77;63.77;96249.69;5031185;28;20097;-69
2024/02/08 05:14:00;;;;;;;0.63;0.63;;;10.10;95.50;;;11.78;63.65;96251.31;5022253;28;20088;-69
2024/02/08 05:16:31;;;;;;;0.63;0.40;;;10.10;95.60;;;11.79;63.61;96245.78;5030640;28;20489;-69
2024/02/08 05:18:59;;;;;;;2.10;0.60;;;10.10;96.20;;;11.79;63.86;96239.63;5023645;28;20045;-68
2024/02/08 05:21:33;;;;;;;0.93;0.70;;;10.10;96.00;;;11.78;64.17;96238.78;5030699;28;20045;-69
2024/02/08 05:24:01;;;;;;;1.00;0.38;;;10.00;96.00;;;11.79;63.92;96247.63;5023665;28;20057;-69
2024/02/08 05:26:40;;;;;;;0.30;0.30;;;10.10;96.00;;;11.77;63.76;96247.00;5030225;28;20048;-68
2024/02/08 05:29:08;;;;;;;0.60;0.50;;;10.00;96.00;;;11.76;64.01;96256.03;4997987;28;20041;-68
2024/02/08 05:31:39;;;;;;;0.53;0.40;;;10.00;96.10;;;11.72;64.11;96250.25;5029520;28;20045;-68
2024/02/08 05:34:11;;;;;;;0.40;0.40;;;10.00;96.30;;;11.72;64.19;96247.59;5030686;28;20064;-68
2024/02/08 05:36:45;;;;;;;0.57;0.50;;;10.00;96.30;;;11.70;64.04;96246.16;5030505;28;20053;-68
2024/02/08 05:39:13;;;;;;;0.70;0.50;;;10.00;96.60;;;11.68;63.93;96246.38;5029449;28;20044;-68
2024/02/08 05:41:44;;;;;;;0.50;0.50;;;10.00;96.70;;;11.71;64.54;96242.47;5029617;28;20049;-68
2024/02/08 05:44:14;;;;;;;0.47;0.47;;;10.00;96.60;;;11.67;64.45;96238.56;5030835;28;20045;-68
2024/02/08 05:46:41;;;;;;;0.40;0.40;;;10.00;97.00;;;11.65;64.56;96240.59;5029031;28;20053;-68
2024/02/08 05:49:13;;;;;;;1.73;0.40;;;10.00;97.00;;;11.62;64.47;96237.31;5030630;28;20048;-69
2024/02/08 05:51:52;;;;;;;0.90;0.73;;;10.00;97.40;;;11.63;64.69;96236.31;5030753;28;20049;-68
2024/02/08 05:54:20;;;;;;;0.90;0.60;;;10.00;98.00;;;11.66;64.33;96236.94;5029414;28;20048;-68
2024/02/08 05:56:49;;;;;;;1.13;1.00;;;10.00;97.60;;;11.67;64.60;96243.91;5012204;28;20417;-68
2024/02/08 05:59:20;;;;;;;1.10;0.80;;;10.00;97.80;;;11.68;64.72;96242.88;5029842;28;20413;-68
2024/02/08 06:01:50;;;;;;;1.93;1.13;;;10.00;97.50;;;11.62;64.63;96236.50;5029361;28;20056;-66
2024/02/08 06:04:24;;;;;;;0.43;0.43;;;10.00;97.70;;;11.61;64.43;96237.53;5029693;28;20049;-66
2024/02/08 06:07:01;;;;;;;5.00;3.50;;;10.00;97.30;;;11.62;64.90;96237.31;5030395;28;20053;-65
2024/02/08 06:12:28;;;;;;;1.00;0.80;;;10.00;97.60;;;11.63;64.99;96238.13;5023118;28;20041;-66
2024/02/08 06:14:59;;;;;;;2.53;0.40;;;10.00;98.00;;;11.61;64.53;96235.69;5030021;28;20041;-66
2024/02/08 06:17:33;;;;;;;0.93;0.80;;;10.00;98.10;;;11.61;64.95;96246.38;5030406;28;20033;-67
2024/02/08 06:20:08;;;;;;;;;;;10.00;98.10;;;11.59;64.67;96247.56;5022781;28;20049;-66
2024/02/08 06:22:39;;;;;;;1.03;0.87;;;10.00;98.30;;;11.58;65.18;96246.75;5032127;28;19920;-67
2024/02/08 06:25:08;;;;;;;0.40;0.40;;;9.90;99.00;;;11.56;64.92;96248.81;5032740;28;20453;-66
2024/02/08 06:27:37;;;;;;;1.70;0.80;;;9.90;98.60;;;11.56;65.15;96248.00;5033506;28;20034;-63
2024/02/08 06:30:09;;;;;;;0.50;0.50;;;9.90;99.00;;;11.57;65.18;96247.78;5032747;28;20038;-66
2024/02/08 06:32:45;;;;;;;0.47;0.47;;;10.00;98.20;;;11.50;65.36;96243.47;5032482;28;20045;-66
2024/02/08 06:35:19;;;;;;;2.10;1.90;;;10.00;97.30;;;11.47;65.15;96250.00;5026644;28;20049;-65
2024/02/08 06:38:03;;;;;;;0.97;0.90;;;9.90;98.40;;;11.46;65.55;96248.38;5033657;28;20042;-66
2024/02/08 07:38:34;;;;;;;0.93;0.80;;;10.00;99.90;;;11.50;66.65;96254.13;5025668;28;20042;-65
2024/02/08 07:41:02;;;;;;;1.07;0.83;;;10.00;99.90;;;11.51;66.24;96251.25;5032334;28;20052;-64
2024/02/08 07:43:34;;;;;;;1.23;0.80;;;10.00;99.90;;;11.54;66.42;96250.03;5031505;28;20116;-65
2024/02/08 07:46:05;;;;;;;1.30;1.08;;;10.00;99.90;;;11.54;66.49;96250.84;5032116;28;20045;-64
2024/02/08 07:48:39;;;;;;;0.67;0.53;;;10.10;99.90;;;11.55;66.34;96254.31;5031365;28;20045;-65
2024/02/08 07:51:08;;;;;;;0.87;0.70;;;10.10;99.90;;;11.57;66.31;96253.13;5011225;28;20421;-64
2024/02/08 07:53:50;;;;;;;0.60;0.60;;;10.00;99.90;;;11.58;66.40;96252.09;5032121;28;20041;-64
2024/02/08 07:59:03;;;;;;;0.83;0.70;;;10.00;99.90;;;11.64;66.36;96255.78;5031227;28;20413;-70
2024/02/08 08:01:40;;;;;;;0.80;0.80;;;10.10;99.90;;;11.69;66.06;96256.03;5032326;28;20276;-68
2024/02/08 08:04:09;;;;;;;0.70;0.60;;;10.20;99.70;;;11.72;66.10;96249.44;5032136;28;20045;-68
2024/02/08 08:06:47;;;;;;;1.20;1.10;;;10.20;99.60;;;11.76;66.17;96253.34;5031834;28;20064;-68
2024/02/08 08:09:20;;;;;;;0.93;0.87;;;10.20;99.30;;;11.77;66.19;96247.81;5024737;28;20048;-68
2024/02/08 08:11:51;;;;;;;0.60;0.60;;;10.20;99.30;;;11.75;65.90;96241.88;5014970;28;20053;-69
2024/02/08 08:17:08;;;;;;;0.63;0.50;;;10.20;99.80;;;11.76;66.26;96250.69;5030616;28;20041;-69
2024/02/08 08:19:41;;;;;;;1.17;0.93;;;10.30;98.90;;;11.72;66.08;96244.13;5014908;28;20431;-69
2024/02/08 08:27:50;;;;;;;0.47;0.47;;;10.30;99.00;;;11.72;66.33;96244.94;5030514;28;20037;-69
2024/02/08 08:30:28;;;;;;;1.50;0.80;;;10.30;99.00;;;11.75;66.10;96241.06;5024303;28;20041;-69
2024/02/08 08:35:45;;;;;;;0.40;0.40;;;10.40;97.80;;;11.82;66.11;96249.88;5029691;28;20076;-68
2024/02/08 08:40:49;;;;;;;1.83;1.73;;;10.40;97.60;;;11.82;66.15;96245.38;5030542;28;20400;-68
2024/02/08 08:43:22;;;;;;;0.50;0.50;;;10.40;97.40;;;11.85;66.20;96246.00;5023818;28;20041;-69
2024/02/08 08:45:55;;;;;;;0.50;0.50;;;10.40;97.60;;;11.89;66.10;96237.41;5013925;28;20048;-69
2024/02/08 08:48:29;;;;;;;0.67;0.60;;;10.50;97.60;;;11.93;65.80;96253.81;5031361;28;20045;-70
2024/02/08 08:51:00;;;;;;;0.87;0.87;;;10.50;97.60;;;11.92;66.11;96238.84;5030250;28;20041;-70
2024/02/08 08:53:28;;;;;;;0.43;0.40;;;10.50;97.00;;;11.97;65.85;96242.53;5031508;28;20405;-70
2024/02/08 08:55:57;;;;;;;0.53;0.53;;;10.60;96.90;;;11.98;66.05;96238.84;5028986;28;20519;-70
2024/02/08 08:58:38;;;;;;;2.60;1.67;;;10.60;96.60;;;12.03;65.76;96240.91;5030079;28;20041;-70
2024/02/08 09:01:18;;;;;;;1.20;1.10;;;10.60;97.20;;;12.04;65.60;96247.03;5030241;28;20049;-70
2024/02/08 09:06:35;;;;;;;1.73;1.00;;;10.50;98.10;;;12.03;65.84;96232.91;5024171;28;20515;-70
2024/02/08 09:09:27;;;;;;;1.03;0.70;;;10.50;98.50;;;12.04;66.03;96241.72;5031151;28;20045;-71
2024/02/08 09:11:57;;;;;;;2.50;2.10;;;10.50;98.30;;;12.08;65.99;96235.78;5030941;28;20488;-70
2024/02/08 09:14:30;;;;;;;1.93;1.40;;;10.60;98.40;;;12.08;65.65;96245.59;5024013;28;20263;-70
2024/02/08 09:17:02;;;;;;;0.67;0.50;;;10.60;98.30;;;12.08;65.85;96243.78;5029917;28;20045;-71
2024/02/08 09:19:50;;;;;;;1.10;0.80;;;10.60;97.70;;;12.07;65.89;96235.97;5031119;28;20299;-70
2024/02/08 09:22:19;;;;;;;0.63;0.63;;;10.60;97.80;;;12.11;66.03;96227.34;5023004;28;20049;-70
2024/02/08 09:24:48;;;;;;;0.53;0.43;;;10.60;97.10;;;12.09;65.98;96232.06;5029218;28;20056;-71
2024/02/08 09:27:19;;;;;;;0.57;0.40;;;10.60;97.60;;;12.08;65.82;96240.28;5030497;28;20497;-71
2024/02/08 09:29:56;;;;;;;0.68;0.68;;;10.60;97.50;;;12.07;65.84;96233.31;5031058;28;20049;-70
2024/02/08 09:35:16;;;;;;;1.77;1.17;;;10.70;97.20;;;12.14;65.81;96228.81;5030452;28;20537;-71
2024/02/08 09:37:48;;;;;;;0.40;0.40;;;10.70;97.30;;;12.14;65.76;96223.47;5014030;28;20038;-71
2024/02/08 09:40:20;;;;;;;0.50;0.50;;;10.70;96.90;;;12.14;65.70;96231.47;5030125;28;20041;-71
2024/02/08 09:42:56;;;;;;;1.10;0.50;;;10.70;96.70;;;12.10;66.01;96220.38;5030401;28;20492;-71
2024/02/08 09:48:08;;;;;;;0.50;0.50;;;10.80;96.90;;;12.16;66.08;96232.09;5030519;28;20053;-71
2024/02/08 09:50:43;;;;;;;0.73;0.57;;;10.80;96.60;;;12.22;65.67;96241.94;5029153;28;20053;-71
2024/02/08 09:53:19;;;;;;;1.50;0.50;;;10.80;97.10;;;12.23;65.92;96235.56;5012533;28;20049;-71
2024/02/08 09:55:55;;;;;;;0.93;0.73;;;10.80;97.20;;;12.25;66.03;96228.16;5029194;28;20057;-71
2024/02/08 09:58:37;;;;;;;0.77;0.70;;;10.90;97.70;;;12.22;66.31;96223.25;5032991;28;20048;-71
2024/02/08 10:01:21;;;;;;;0.50;0.50;;;10.80;97.80;;;12.26;66.09;96211.13;5033320;28;20532;-71
2024/02/08 10:03:50;;;;;;;0.60;0.60;;;10.80;98.00;;;12.27;66.22;96217.28;5034387;28;20045;-70
2024/02/08 10:06:24;;;;;;;0.70;0.70;;;10.80;98.10;;;12.31;66.08;96214.03;5032417;28;20057;-71
2024/02/08 10:08:54;;;;;;;0.50;0.50;;;10.90;97.50;;;12.38;66.10;96219.34;5033424;28;20052;-71
2024/02/08 10:11:27;;;;;;;1.33;0.68;;;11.00;97.10;;;12.44;66.15;96223.84;5034252;28;20131;-71
2024/02/08 10:14:01;;;;;;;0.95;0.50;;;11.00;97.30;;;12.50;65.82;96223.00;5034547;28;20045;-70
2024/02/08 10:16:29;;;;;;;1.13;0.40;;;11.10;96.70;;;12.49;65.83;96223.25;5026530;28;20038;-71
2024/02/08 10:19:03;;;;;;;0.40;0.40;;;11.10;96.50;;;12.57;65.79;96212.34;5016400;28;20046;-71
2024/02/08 10:21:35;;;;;;;0.73;0.60;;;11.10;96.20;;;12.59;65.74;96213.75;5034302;28;20052;-71
2024/02/08 10:24:25;;;;;;;0.30;0.30;;;11.20;96.10;;;12.66;65.80;96207.56;5034020;28;20056;-70
2024/02/08 10:26:58;;;;;;;0.40;0.40;;;11.30;96.10;;;12.70;65.62;96206.16;5033283;28;20052;-71
2024/02/08 10:29:31;;;;;;;0.88;0.73;;;11.30;95.20;;;12.69;65.72;96205.31;5032885;28;20038;-71
2024/02/08 10:31:59;;;;;;;2.08;1.33;;;11.30;95.70;;;12.74;65.50;96197.50;5033288;28;20041;-71
2024/02/08 10:34:39;;;;;;;0.60;0.60;;;11.30;95.40;;;12.76;65.25;96181.28;5033734;28;20432;-71
2024/02/08 10:37:46;;;;;;;1.98;0.60;;;11.30;95.30;;;12.82;65.25;96182.28;5033691;28;20050;-71
2024/02/08 10:40:23;;;;;;;0.60;0.60;;;11.40;94.70;;;12.87;65.12;96183.28;5033894;28;20045;-71
2024/02/08 10:42:58;;;;;;;2.03;1.20;;;11.40;93.90;;;12.89;64.85;96173.22;5028495;28;20052;-71
2024/02/08 10:45:32;;;;;;;1.53;0.97;;;11.40;93.90;;;12.87;64.76;96180.63;5033148;28;20046;-72
2024/02/08 10:48:03;;;;;;;;;;;11.40;94.20;;;12.84;65.04;96182.91;5033841;28;20045;-70
2024/02/08 10:50:34;;;;;;;0.67;0.67;;;11.40;93.60;;;12.89;64.92;96173.22;5024435;28;19921;-69
2024/02/08 10:53:04;;;;;;;0.80;0.68;;;11.40;95.70;;;12.90;64.98;96172.16;5029850;28;20046;-70
2024/02/08 10:55:39;;;;;;;1.10;1.00;;;11.50;96.10;;;12.93;65.16;96173.59;5031921;28;20041;-70
2024/02/08 11:03:33;;;;;;;1.30;1.20;;;11.50;95.90;;;12.96;65.17;96157.16;5015622;28;20045;-70
2024/02/08 11:06:04;;;;;;;0.80;0.80;;;11.50;96.30;;;12.99;65.16;96154.88;5031727;28;20497;-65
2024/02/08 11:08:36;;;;;;;3.50;3.03;;;11.60;96.30;;;13.08;65.24;96146.63;5025301;28;20535;-64
2024/02/08 11:11:12;;;;;;;1.10;0.90;;;11.70;96.40;;;13.10;65.39;96147.22;5033187;28;20513;-67
2024/02/08 11:13:45;;;;;;;2.35;2.00;;;11.70;95.70;;;13.15;65.28;96145.53;5031979;28;20375;-64
2024/02/08 11:16:23;;;;;;;0.80;0.80;;;11.80;95.70;;;13.19;65.37;96146.75;5031395;28;20042;-65
2024/02/08 11:18:54;;;;;;;0.60;0.60;;;11.80;95.50;;;13.25;65.41;96131.72;5031896;28;20056;-66
2024/02/08 11:21:42;;;;;;;0.93;0.90;;;11.90;95.80;;;13.24;65.21;96132.75;5032765;28;20049;-67
2024/02/08 11:24:28;;;;;;;1.93;1.50;;;11.80;94.50;;;13.28;65.16;96125.13;5031776;28;20053;-70
2024/02/08 11:27:01;;;;;;;3.15;2.00;;;11.90;94.80;;;13.35;65.16;96117.91;5032832;28;20045;-70
2024/02/08 11:29:47;;;;;;;3.08;1.50;;;12.00;95.40;;;13.37;65.09;96103.28;5031546;28;20041;-70
2024/02/08 11:32:20;;;;;;;2.88;1.95;;;12.00;95.10;;;13.42;65.21;96109.88;5031596;28;20417;-69
2024/02/08 11:34:54;;;;;;;1.43;1.00;;;12.10;94.90;;;13.45;64.89;96104.06;5031678;28;20037;-69
2024/02/08 11:37:37;;;;;;;2.25;1.08;;;12.00;93.80;;;13.53;64.91;96085.06;5032708;28;20292;-69
2024/02/08 11:40:11;;;;;;;2.72;1.83;;;12.10;94.40;;;13.55;64.61;96091.88;5032766;28;20045;-68
2024/02/08 11:42:42;;;;;;;3.83;1.95;;;12.20;93.10;;;13.57;64.52;96083.59;5025613;28;20045;-68
2024/02/08 11:45:16;;;;;;;2.63;2.35;;;12.20;93.30;;;13.63;64.47;96082.75;5031973;28;20048;-69
2024/02/08 11:47:48;;;;;;;;;;;12.20;93.60;;;13.61;64.54;96087.50;5032975;28;20049;-69
2024/02/08 11:50:22;;;;;;;2.25;1.35;;;12.20;92.10;;;13.63;64.17;96081.91;5031430;28;19929;-68
2024/02/08 11:52:59;;;;;;;1.65;1.02;;;12.20;92.10;;;13.67;64.10;96083.16;5030988;28;20045;-69
2024/02/08 11:55:28;;;;;;;2.28;1.85;;;12.30;92.40;;;13.67;64.27;96089.31;5031751;28;20045;-69
2024/02/08 11:57:57;;;;;;;4.65;2.05;;;12.30;92.50;;;13.55;64.10;96091.03;5031228;28;20057;-69
2024/02/08 12:00:25;;;;;;;1.63;1.20;;;12.30;91.10;;;13.53;64.02;96083.25;5030926;28;20541;-68
2024/02/08 12:02:58;;;;;;;2.45;1.30;;;12.20;91.30;;;13.57;64.15;96071.06;5030932;28;20520;-68
2024/02/08 12:05:33;;;;;;;2.08;1.50;;;12.30;92.10;;;13.67;64.08;96072.44;5030270;28;20049;-69
2024/02/08 12:08:08;;;;;;;4.10;1.23;;;12.30;92.20;;;13.71;64.04;96070.97;5032361;28;20050;-69
2024/02/08 12:10:38;;;;;;;2.88;1.50;;;12.40;91.20;;;13.70;64.11;96059.44;5024491;28;20052;-69
2024/02/08 12:13:12;;;;;;;1.70;1.30;;;12.40;90.70;;;13.74;64.02;96074.00;5030981;28;20397;-69
2024/02/08 12:15:55;;;;;;;4.55;1.98;;;12.50;91.40;;;13.75;63.97;96081.00;5024431;28;20512;-69
2024/02/08 12:18:26;;;;;;;4.82;1.40;;;12.50;90.60;;;13.78;63.86;96055.66;5031910;28;20398;-69
2024/02/08 12:20:56;;;;;;;3.92;1.92;;;12.50;89.60;;;13.82;63.97;96056.84;5029690;28;20042;-69
2024/02/08 12:23:24;;;;;;;4.18;1.50;;;12.60;90.70;;;13.78;63.73;96061.84;5030523;28;20045;-69
2024/02/08 12:25:54;;;;;;;2.22;1.17;;;12.50;89.30;;;13.77;63.37;96067.41;5031274;28;20052;-68
2024/02/08 12:28:24;;;;;;;6.78;2.30;;;12.60;88.30;;;13.73;63.30;96064.34;5031899;28;20065;-69
2024/02/08 12:30:59;;;;;;;3.90;1.30;;;12.50;88.60;;;13.81;63.34;96075.81;5030749;28;20056;-68
2024/02/08 12:33:29;;;;;;;4.47;1.65;;;12.50;89.40;;;13.75;63.20;96070.31;5030358;28;20049;-68
2024/02/08 12:36:00;;;;;;;5.43;1.67;;;12.50;88.80;;;13.73;63.05;96069.69;5029885;28;20053;-69
2024/02/08 12:38:27;;;;;;;4.05;2.55;;;12.50;88.20;;;13.68;62.98;96076.75;5014051;28;20056;-69
2024/02/08 12:40:56;;;;;;;6.35;3.42;;;12.50;87.80;;;13.77;63.00;96073.56;5031722;28;20446;-69
2024/02/08 12:43:25;;;;;;;3.25;1.80;;;12.60;87.80;;;13.81;62.76;96073.16;5031526;28;20424;-69
2024/02/08 12:45:54;;;;;;;7.00;2.83;;;12.60;87.40;;;13.83;62.47;96068.38;5013379;28;20429;-69
2024/02/08 12:48:22;;;;;;;4.97;2.42;;;12.60;86.10;;;13.87;62.17;96080.28;5030246;28;20061;-69
2024/02/08 12:50:52;;;;;;;7.60;2.55;;;12.60;85.30;;;13.86;61.20;96062.59;5031473;28;20527;-68
2024/02/08 12:53:21;;;;;;;6.38;3.08;;;12.60;82.80;;;13.73;60.86;96050.97;5031278;28;20496;-69
2024/02/08 12:55:48;;;;;;;11.55;2.88;;;12.60;81.40;;;13.80;60.21;96069.63;5029086;28;20045;-69